createdAt,value
2022-11-09T00:00:12.378Z,7.90
2022-11-09T00:01:12.386Z,7.90
2022-11-09T02:08:19.789Z,7.80
2022-11-09T02:09:19.534Z,7.40
2022-11-09T02:10:19.592Z,8.00
2022-11-09T02:11:19.582Z,7.40
2022-11-09T02:12:19.623Z,7.40
2022-11-09T02:13:20.101Z,8.10
2022-11-09T02:14:19.825Z,7.80
2022-11-09T02:15:19.731Z,7.90
2022-11-09T02:16:19.744Z,7.60
2022-11-09T02:17:20.186Z,7.60
2022-11-09T02:18:19.856Z,7.60
2022-11-09T02:19:19.841Z,8.00
2022-11-09T02:20:20.022Z,7.70
2022-11-09T02:21:19.868Z,7.70
2022-11-09T02:22:19.924Z,7.50
2022-11-09T02:23:20.304Z,7.60
2022-11-09T02:24:19.966Z,7.70
2022-11-09T02:25:19.967Z,7.70
2022-11-09T02:26:20.052Z,7.00
2022-11-09T02:27:20.020Z,7.80
2022-11-09T02:28:20.225Z,7.40
2022-11-09T02:29:20.091Z,7.20
2022-11-09T02:30:20.172Z,6.90
2022-11-09T02:31:20.232Z,6.90
2022-11-09T02:32:20.182Z,7.70
2022-11-09T02:33:20.513Z,8.50
2022-11-09T02:34:20.232Z,7.10
2022-11-09T02:35:20.229Z,7.60
2022-11-09T02:36:20.291Z,7.30
2022-11-09T02:37:20.749Z,7.50
2022-11-09T02:38:20.443Z,7.30
2022-11-09T02:39:20.317Z,7.10
2022-11-09T02:40:20.380Z,7.00
2022-11-09T02:41:20.375Z,6.90
2022-11-09T02:42:21.793Z,7.60
2022-11-09T02:43:20.646Z,7.30
2022-11-09T02:44:20.448Z,7.60
2022-11-09T02:45:20.461Z,7.80
2022-11-09T02:46:20.526Z,7.50
2022-11-09T02:47:20.519Z,6.70
2022-11-09T02:48:20.563Z,7.70
2022-11-09T02:49:20.546Z,7.60
2022-11-09T02:50:20.626Z,7.30
2022-11-09T02:51:20.604Z,7.30
2022-11-09T02:52:20.654Z,7.10
2022-11-09T02:53:20.899Z,7.30
2022-11-09T02:54:20.734Z,7.20
2022-11-09T02:55:20.706Z,7.90
2022-11-09T02:56:20.866Z,7.40
2022-11-09T03:03:36.345Z,7.50
2022-11-09T03:04:20.946Z,7.60
2022-11-09T03:05:20.940Z,7.60
2022-11-09T03:06:20.959Z,7.60
2022-11-09T03:07:21.033Z,7.40
2022-11-09T03:08:21.045Z,7.10
2022-11-09T03:11:21.218Z,7.40
2022-11-09T03:12:21.111Z,7.70
2022-11-09T03:13:21.436Z,7.10
2022-11-09T03:14:21.168Z,7.60
2022-11-09T03:15:21.171Z,7.40
2022-11-09T03:16:21.239Z,7.20
2022-11-09T03:17:21.210Z,7.80
2022-11-09T03:18:21.260Z,7.90
2022-11-09T03:19:21.252Z,7.60
2022-11-09T03:20:21.314Z,7.60
2022-11-09T03:21:21.434Z,7.30
2022-11-09T03:22:21.803Z,7.20
2022-11-09T03:23:21.667Z,7.40
2022-11-09T03:24:21.368Z,7.00
2022-11-09T03:25:21.365Z,7.90
2022-11-09T03:26:21.392Z,7.60
2022-11-09T03:27:21.522Z,7.00
2022-11-09T03:28:21.425Z,7.30
2022-11-09T03:29:21.448Z,7.00
2022-11-09T03:30:21.475Z,7.20
2022-11-09T03:31:21.485Z,7.20
2022-11-09T03:32:21.517Z,7.10
2022-11-09T03:33:21.909Z,7.60
2022-11-09T03:34:21.540Z,7.50
2022-11-09T03:35:21.550Z,7.60
2022-11-09T03:36:21.589Z,7.90
2022-11-09T03:37:21.669Z,6.80
2022-11-09T03:38:21.659Z,6.90
2022-11-09T03:39:21.640Z,7.40
2022-11-09T03:40:21.685Z,7.00
2022-11-09T03:41:21.751Z,7.40
2022-11-09T03:42:21.776Z,7.40
2022-11-09T03:43:22.114Z,7.70
2022-11-09T03:44:21.823Z,7.50
2022-11-09T03:45:21.825Z,7.60
2022-11-09T03:46:21.885Z,7.10
2022-11-09T03:47:21.887Z,7.40
2022-11-09T03:48:21.955Z,7.10
2022-11-09T03:49:21.943Z,7.70
2022-11-09T03:50:22.010Z,7.80
2022-11-09T03:51:22.016Z,7.20
2022-11-09T03:52:22.051Z,7.50
2022-11-09T03:53:22.475Z,6.90
2022-11-09T03:54:22.105Z,7.50
2022-11-09T03:55:22.128Z,7.70
2022-11-09T03:56:22.155Z,7.50
2022-11-09T03:57:22.171Z,7.70
2022-11-09T03:58:22.214Z,7.80
2022-11-09T03:59:22.241Z,7.30
2022-11-09T04:00:22.254Z,7.00
2022-11-09T04:01:22.329Z,6.90
2022-11-09T04:02:22.294Z,6.80
2022-11-09T04:03:22.628Z,7.20
2022-11-09T04:04:22.346Z,6.80
2022-11-09T04:05:22.362Z,6.80
2022-11-09T04:06:22.385Z,7.50
2022-11-09T04:07:22.383Z,7.00
2022-11-09T04:08:22.545Z,8.00
2022-11-09T04:09:22.426Z,6.90
2022-11-09T04:10:22.498Z,7.40
2022-11-09T04:11:22.551Z,7.70
2022-11-09T04:12:22.498Z,7.10
2022-11-09T04:13:22.717Z,7.30
2022-11-09T04:14:22.559Z,7.20
2022-11-09T04:15:22.533Z,7.50
2022-11-09T04:16:22.576Z,7.40
2022-11-09T04:17:22.576Z,7.30
2022-11-09T04:18:22.611Z,6.60
2022-11-09T04:19:22.617Z,7.10
2022-11-09T04:20:22.631Z,7.20
2022-11-09T04:21:24.038Z,7.30
2022-11-09T04:22:22.706Z,7.40
2022-11-09T04:23:22.981Z,7.50
2022-11-09T04:24:22.830Z,7.70
2022-11-09T04:25:22.738Z,7.40
2022-11-09T04:26:22.775Z,7.40
2022-11-09T04:27:22.771Z,7.70
2022-11-09T04:28:22.823Z,7.50
2022-11-09T04:29:22.805Z,7.20
2022-11-09T04:30:22.875Z,7.40
2022-11-09T04:31:27.767Z,8.00
2022-11-09T04:32:22.910Z,7.10
2022-11-09T04:33:23.146Z,6.90
2022-11-09T04:34:22.929Z,6.40
2022-11-09T04:35:22.949Z,6.60
2022-11-09T04:36:22.969Z,7.40
2022-11-09T04:37:22.967Z,7.20
2022-11-09T04:38:23.008Z,7.20
2022-11-09T04:39:23.018Z,8.00
2022-11-09T04:40:23.068Z,7.00
2022-11-09T04:41:23.065Z,7.70
2022-11-09T04:42:23.098Z,7.10
2022-11-09T04:43:23.228Z,7.60
2022-11-09T04:44:23.110Z,7.10
2022-11-09T04:45:23.138Z,6.70
2022-11-09T04:46:23.154Z,7.50
2022-11-09T04:47:23.160Z,7.20
2022-11-09T04:48:23.204Z,7.70
2022-11-09T04:51:17.157Z,7.50
2022-11-09T04:52:17.273Z,7.00
2022-11-09T04:53:17.254Z,7.50
2022-11-09T04:54:17.288Z,7.10
2022-11-09T04:55:17.278Z,7.50
2022-11-09T04:56:17.417Z,7.40
2022-11-09T04:57:17.324Z,7.30
2022-11-09T04:58:22.360Z,7.00
2022-11-09T04:59:17.370Z,7.70
2022-11-09T05:00:17.408Z,7.40
2022-11-09T05:01:17.404Z,7.30
2022-11-09T05:02:17.699Z,7.60
2022-11-09T05:03:17.880Z,8.10
2022-11-09T05:04:17.599Z,7.00
2022-11-09T05:05:17.494Z,7.30
2022-11-09T05:06:17.519Z,7.30
2022-11-09T05:07:17.579Z,6.90
2022-11-09T05:08:17.686Z,7.60
2022-11-09T05:09:17.541Z,6.90
2022-11-09T05:10:17.593Z,7.20
2022-11-09T05:11:17.612Z,7.50
2022-11-09T05:12:17.619Z,7.30
2022-11-09T05:13:18.066Z,7.00
2022-11-09T05:14:17.661Z,7.30
2022-11-09T05:15:17.647Z,6.70
2022-11-09T05:16:17.669Z,7.40
2022-11-09T05:17:17.651Z,6.40
2022-11-09T05:18:17.698Z,7.10
2022-11-09T05:19:17.835Z,7.40
2022-11-09T05:20:17.733Z,7.20
2022-11-09T05:21:17.729Z,6.40
2022-11-09T05:22:17.767Z,7.10
2022-11-09T05:23:17.995Z,7.30
2022-11-09T05:24:17.785Z,6.90
2022-11-09T05:25:17.939Z,6.90
2022-11-09T05:26:17.820Z,7.20
2022-11-09T05:27:17.824Z,7.60
2022-11-09T05:28:17.863Z,7.20
2022-11-09T05:29:17.848Z,6.80
2022-11-09T05:30:22.896Z,7.10
2022-11-09T05:31:22.878Z,7.10
2022-11-09T05:32:22.879Z,6.50
2022-11-09T05:33:23.266Z,7.20
2022-11-09T05:34:22.922Z,6.70
2022-11-09T05:35:22.964Z,7.60
2022-11-09T05:36:22.948Z,7.00
2022-11-09T05:37:22.971Z,6.90
2022-11-09T05:38:22.970Z,6.30
2022-11-09T05:39:23.039Z,6.70
2022-11-09T05:40:23.112Z,6.80
2022-11-09T05:41:23.033Z,7.70
2022-11-09T05:42:23.033Z,7.10
2022-11-09T05:43:23.147Z,7.40
2022-11-09T05:44:23.050Z,6.60
2022-11-09T05:45:41.363Z,7.10
2022-11-09T05:46:23.113Z,6.70
2022-11-09T05:47:23.111Z,6.70
2022-11-09T05:48:23.087Z,6.20
2022-11-09T05:49:23.149Z,6.30
2022-11-09T05:50:23.115Z,6.90
2022-11-09T05:51:28.191Z,6.70
2022-11-09T05:52:28.155Z,7.60
2022-11-09T05:53:28.154Z,7.20
2022-11-09T05:54:28.192Z,8.00
2022-11-09T05:55:28.175Z,7.30
2022-11-09T05:56:28.351Z,6.90
2022-11-09T05:57:28.243Z,7.30
2022-11-09T05:58:28.274Z,7.40
2022-11-09T05:59:28.271Z,7.20
2022-11-09T06:00:28.311Z,7.20
2022-11-09T06:01:28.279Z,6.80
2022-11-09T06:02:28.426Z,7.30
2022-11-09T06:03:28.315Z,7.20
2022-11-09T06:04:28.331Z,7.20
2022-11-09T06:05:28.327Z,7.20
2022-11-09T06:06:28.457Z,6.60
2022-11-09T06:07:28.353Z,7.10
2022-11-09T06:08:28.521Z,7.50
2022-11-09T06:09:28.361Z,7.20
2022-11-09T06:10:28.413Z,7.40
2022-11-09T06:11:28.394Z,7.10
2022-11-09T06:12:28.434Z,7.90
2022-11-09T06:13:28.432Z,7.40
2022-11-09T06:14:28.569Z,7.40
2022-11-09T06:15:28.455Z,7.20
2022-11-09T06:16:28.489Z,7.00
2022-11-09T06:17:28.506Z,8.00
2022-11-09T06:18:28.547Z,6.80
2022-11-09T06:19:28.549Z,6.90
2022-11-09T06:20:28.611Z,7.00
2022-11-09T06:21:28.551Z,7.30
2022-11-09T06:22:28.631Z,7.30
2022-11-09T06:23:28.595Z,7.00
2022-11-09T06:24:28.623Z,7.00
2022-11-09T06:25:28.729Z,6.70
2022-11-09T06:26:28.672Z,6.60
2022-11-09T06:27:28.662Z,6.90
2022-11-09T06:28:28.716Z,6.40
2022-11-09T06:29:28.723Z,7.40
2022-11-09T06:30:28.896Z,7.10
2022-11-09T06:31:28.776Z,7.40
2022-11-09T06:32:28.824Z,7.40
2022-11-09T06:33:28.807Z,7.40
2022-11-09T06:34:28.855Z,7.30
2022-11-09T06:35:29.002Z,7.80
2022-11-09T06:36:33.761Z,7.30
2022-11-09T06:37:33.897Z,7.40
2022-11-09T06:38:33.900Z,7.40
2022-11-09T06:39:38.811Z,7.10
2022-11-09T06:40:39.043Z,7.50
2022-11-09T06:41:41.193Z,7.20
2022-11-09T06:42:39.029Z,6.90
2022-11-09T06:43:38.953Z,6.50
2022-11-09T06:44:38.993Z,7.80
2022-11-09T06:45:39.014Z,7.60
2022-11-09T06:46:39.049Z,7.80
2022-11-09T06:47:39.478Z,7.30
2022-11-09T06:48:39.062Z,6.70
2022-11-09T06:49:39.036Z,7.10
2022-11-09T06:50:39.146Z,6.90
2022-11-09T06:51:43.014Z,6.80
2022-11-09T06:52:43.141Z,6.80
2022-11-09T06:53:43.090Z,7.50
2022-11-09T06:54:43.127Z,6.80
2022-11-09T06:55:48.836Z,6.80
2022-11-09T06:56:43.152Z,6.90
2022-11-09T06:57:43.153Z,8.00
2022-11-09T06:58:43.179Z,6.50
2022-11-09T06:59:43.172Z,6.90
2022-11-09T07:00:43.325Z,7.30
2022-11-09T07:01:43.252Z,7.80
2022-11-09T07:02:43.221Z,7.30
2022-11-09T07:03:43.215Z,7.30
2022-11-09T07:04:43.270Z,7.60
2022-11-09T07:05:43.270Z,6.80
2022-11-09T07:06:43.429Z,7.30
2022-11-09T07:07:43.318Z,6.70
2022-11-09T07:08:43.353Z,6.50
2022-11-09T07:09:43.345Z,6.70
2022-11-09T07:10:43.440Z,7.40
2022-11-09T07:11:43.473Z,7.10
2022-11-09T07:12:43.416Z,7.00
2022-11-09T07:13:43.442Z,7.10
2022-11-09T07:14:43.474Z,7.70
2022-11-09T07:15:43.435Z,7.20
2022-11-09T07:16:43.487Z,6.40
2022-11-09T07:17:43.608Z,6.80
2022-11-09T07:19:48.402Z,6.80
2022-11-09T07:20:48.548Z,7.30
2022-11-09T07:21:48.517Z,6.20
2022-11-09T07:22:48.653Z,6.50
2022-11-09T07:23:48.556Z,6.10
2022-11-09T07:24:48.569Z,5.60
2022-11-09T07:25:48.569Z,6.30
2022-11-09T07:26:48.583Z,7.20
2022-11-09T07:27:48.587Z,7.10
2022-11-09T07:28:48.644Z,6.50
2022-11-09T07:29:48.602Z,7.00
2022-11-09T07:30:48.656Z,6.50
2022-11-09T07:31:48.624Z,6.60
2022-11-09T07:33:08.756Z,7.00
2022-11-09T07:33:48.632Z,7.10
2022-11-09T07:34:48.799Z,7.10
2022-11-09T07:35:48.667Z,6.90
2022-11-09T07:36:48.736Z,6.30
2022-11-09T07:37:48.694Z,6.80
2022-11-09T07:38:48.726Z,6.80
2022-11-09T07:39:48.715Z,7.40
2022-11-09T07:40:48.778Z,6.40
2022-11-09T07:41:48.791Z,7.30
2022-11-09T07:42:48.786Z,6.70
2022-11-09T07:43:48.778Z,7.00
2022-11-09T07:44:48.853Z,6.30
2022-11-09T07:45:48.845Z,6.80
2022-11-09T07:46:48.863Z,7.50
2022-11-09T07:47:48.848Z,6.10
2022-11-09T07:48:48.887Z,6.70
2022-11-09T07:49:48.884Z,7.10
2022-11-09T07:50:49.161Z,6.80
2022-11-09T07:51:48.903Z,7.30
2022-11-09T07:52:48.929Z,6.30
2022-11-09T07:53:48.927Z,6.80
2022-11-09T07:54:52.141Z,6.40
2022-11-09T07:55:48.969Z,7.10
2022-11-09T07:56:49.018Z,6.20
2022-11-09T07:57:48.998Z,6.60
2022-11-09T07:58:49.035Z,6.60
2022-11-09T07:59:49.034Z,6.70
2022-11-09T08:00:49.088Z,6.70
2022-11-09T08:01:49.282Z,6.60
2022-11-09T08:02:49.094Z,5.60
2022-11-09T08:03:49.084Z,6.60
2022-11-09T08:04:49.126Z,6.70
2022-11-09T08:05:49.119Z,7.00
2022-11-09T08:06:49.583Z,6.40
2022-11-09T08:07:49.151Z,6.00
2022-11-09T08:08:49.183Z,7.20
2022-11-09T08:09:49.148Z,6.80
2022-11-09T08:10:49.189Z,6.20
2022-11-09T08:11:49.169Z,6.30
2022-11-09T08:12:49.327Z,6.60
2022-11-09T08:13:49.200Z,7.30
2022-11-09T08:14:49.217Z,6.50
2022-11-09T08:15:49.227Z,7.60
2022-11-09T08:16:49.274Z,5.70
2022-11-09T08:17:49.349Z,6.00
2022-11-09T08:18:49.298Z,6.70
2022-11-09T08:19:49.304Z,7.00
2022-11-09T08:20:49.335Z,6.10
2022-11-09T08:21:49.314Z,6.90
2022-11-09T08:22:49.476Z,6.60
2022-11-09T08:23:49.494Z,6.90
2022-11-09T08:24:49.426Z,6.80
2022-11-09T08:25:49.392Z,6.60
2022-11-09T08:26:49.433Z,6.60
2022-11-09T08:27:49.444Z,6.80
2022-11-09T08:28:49.457Z,6.40
2022-11-09T08:29:49.558Z,6.60
2022-11-09T08:30:49.495Z,6.40
2022-11-09T08:31:49.486Z,6.40
2022-11-09T08:32:49.559Z,7.40
2022-11-09T08:33:49.535Z,7.10
2022-11-09T08:34:49.507Z,6.10
2022-11-09T08:35:53.145Z,6.80
2022-11-09T08:36:49.582Z,6.30
2022-11-09T08:37:49.566Z,6.60
2022-11-09T08:38:49.595Z,6.60
2022-11-09T08:39:49.605Z,5.90
2022-11-09T08:40:49.670Z,7.00
2022-11-09T08:41:49.622Z,6.30
2022-11-09T08:42:49.653Z,6.40
2022-11-09T08:43:49.647Z,7.10
2022-11-09T08:44:49.680Z,6.30
2022-11-09T08:45:49.796Z,6.30
2022-11-09T08:46:49.731Z,6.60
2022-11-09T08:47:49.701Z,6.30
2022-11-09T08:48:49.742Z,5.60
2022-11-09T08:49:49.737Z,7.30
2022-11-09T08:50:49.909Z,7.10
2022-11-09T08:51:49.775Z,6.90
2022-11-09T08:52:49.814Z,6.50
2022-11-09T08:53:49.807Z,7.00
2022-11-09T08:54:49.841Z,7.20
2022-11-09T08:55:49.958Z,6.10
2022-11-09T08:56:50.040Z,6.70
2022-11-09T08:57:49.905Z,6.40
2022-11-09T08:58:49.940Z,6.70
2022-11-09T08:59:49.949Z,6.30
2022-11-09T09:00:49.964Z,6.50
2022-11-09T09:01:50.048Z,6.80
2022-11-09T09:02:50.181Z,6.60
2022-11-09T09:03:50.004Z,7.10
2022-11-09T09:04:50.037Z,6.40
2022-11-09T09:05:50.158Z,6.40
2022-11-09T09:06:50.107Z,5.90
2022-11-09T09:07:50.088Z,6.60
2022-11-09T09:08:55.185Z,6.80
2022-11-09T09:09:55.133Z,6.40
2022-11-09T09:10:55.128Z,6.50
2022-11-09T09:11:55.190Z,7.40
2022-11-09T09:12:55.189Z,6.80
2022-11-09T09:15:49.287Z,5.90
2022-11-09T09:16:49.291Z,6.30
2022-11-09T09:17:49.317Z,6.50
2022-11-09T09:18:49.331Z,6.30
2022-11-09T09:19:50.270Z,7.10
2022-11-09T09:20:49.470Z,7.10
2022-11-09T09:21:49.408Z,7.10
2022-11-09T09:22:49.406Z,7.10
2022-11-09T09:23:49.433Z,6.50
2022-11-09T09:24:49.440Z,6.70
2022-11-09T09:25:49.619Z,7.60
2022-11-09T09:26:49.952Z,7.00
2022-11-09T09:27:49.526Z,7.20
2022-11-09T09:28:49.534Z,6.90
2022-11-09T09:29:54.465Z,7.20
2022-11-09T09:30:54.590Z,7.00
2022-11-09T09:31:54.587Z,7.30
2022-11-09T09:32:54.620Z,7.40
2022-11-09T09:33:54.627Z,7.10
2022-11-09T09:34:54.666Z,6.60
2022-11-09T09:35:54.770Z,6.40
2022-11-09T09:36:54.856Z,7.10
2022-11-09T09:37:54.735Z,7.00
2022-11-09T09:38:54.806Z,7.00
2022-11-09T09:39:54.796Z,7.50
2022-11-09T09:40:54.996Z,7.00
2022-11-09T09:41:54.888Z,7.10
2022-11-09T09:42:54.946Z,6.40
2022-11-09T09:43:54.958Z,7.50
2022-11-09T09:44:55.003Z,6.80
2022-11-09T09:45:55.118Z,8.00
2022-11-09T09:46:55.202Z,7.40
2022-11-09T09:47:55.086Z,6.90
2022-11-09T09:48:55.135Z,6.90
2022-11-09T09:49:55.228Z,7.40
2022-11-09T09:50:55.344Z,7.30
2022-11-09T09:51:55.225Z,7.20
2022-11-09T09:53:22.200Z,8.00
2022-11-09T09:53:55.306Z,7.40
2022-11-09T09:54:55.359Z,7.80
2022-11-09T09:55:55.408Z,7.90
2022-11-09T09:56:55.426Z,7.50
2022-11-09T09:57:55.422Z,7.50
2022-11-09T09:58:55.459Z,8.00
2022-11-09T09:59:55.477Z,7.50
2022-11-09T10:00:55.553Z,7.50
2022-11-09T10:01:55.549Z,7.80
2022-11-09T10:02:55.601Z,7.50
2022-11-09T10:03:55.605Z,7.80
2022-11-09T10:04:55.695Z,7.60
2022-11-09T10:05:55.763Z,7.30
2022-11-09T10:06:55.876Z,7.90
2022-11-09T10:07:55.714Z,8.20
2022-11-09T10:08:55.758Z,7.90
2022-11-09T10:09:55.780Z,8.10
2022-11-09T10:10:55.922Z,8.10
2022-11-09T10:12:00.738Z,7.20
2022-11-09T10:12:55.865Z,7.60
2022-11-09T10:13:55.888Z,8.60
2022-11-09T10:14:55.940Z,6.90
2022-11-09T10:15:56.111Z,7.60
2022-11-09T10:16:56.103Z,7.50
2022-11-09T10:17:55.989Z,8.20
2022-11-09T10:18:56.062Z,8.50
2022-11-09T10:19:56.466Z,7.20
2022-11-09T10:20:56.094Z,7.70
2022-11-09T10:21:56.117Z,7.50
2022-11-09T10:22:56.151Z,8.50
2022-11-09T10:23:56.181Z,7.70
2022-11-09T10:25:20.651Z,8.00
2022-11-09T10:26:04.636Z,7.30
2022-11-09T10:26:56.413Z,7.50
2022-11-09T10:27:56.298Z,8.20
2022-11-09T10:29:15.262Z,7.80
2022-11-09T10:29:56.384Z,7.70
2022-11-09T10:30:56.677Z,8.00
2022-11-09T10:32:00.486Z,7.30
2022-11-09T10:33:00.548Z,7.10
2022-11-09T10:34:00.519Z,7.00
2022-11-09T10:35:00.571Z,7.80
2022-11-09T10:36:05.309Z,8.20
2022-11-09T10:37:00.678Z,8.00
2022-11-09T10:38:00.656Z,8.00
2022-11-09T10:39:00.703Z,7.50
2022-11-09T10:40:00.782Z,8.60
2022-11-09T10:41:00.773Z,7.70
2022-11-09T10:42:00.781Z,7.60
2022-11-09T10:43:00.801Z,7.60
2022-11-09T10:44:00.792Z,8.80
2022-11-09T10:45:00.856Z,7.80
2022-11-09T10:46:01.297Z,8.10
2022-11-09T10:47:00.921Z,8.20
2022-11-09T10:48:00.955Z,7.30
2022-11-09T10:49:00.947Z,7.40
2022-11-09T10:50:01.223Z,7.50
2022-11-09T10:51:01.019Z,8.40
2022-11-09T10:52:01.016Z,6.50
2022-11-09T10:53:01.059Z,7.40
2022-11-09T10:54:01.085Z,7.60
2022-11-09T10:55:01.120Z,7.40
2022-11-09T10:56:01.160Z,7.30
2022-11-09T10:57:06.109Z,7.40
2022-11-09T10:58:01.185Z,7.50
2022-11-09T10:59:01.242Z,7.00
2022-11-09T11:00:01.275Z,7.80
2022-11-09T11:01:01.413Z,7.40
2022-11-09T11:02:02.388Z,7.30
2022-11-09T11:03:01.363Z,7.70
2022-11-09T11:04:01.399Z,7.30
2022-11-09T11:05:01.451Z,8.40
2022-11-09T11:06:01.618Z,8.20
2022-11-09T11:07:01.621Z,7.70
2022-11-09T11:08:01.554Z,7.80
2022-11-09T11:09:01.582Z,7.10
2022-11-09T11:10:01.582Z,7.20
2022-11-09T11:11:19.532Z,7.70
2022-11-09T11:12:01.687Z,7.80
2022-11-09T11:13:01.720Z,8.10
2022-11-09T11:14:01.748Z,7.70
2022-11-09T11:15:02.251Z,7.60
2022-11-09T11:16:01.909Z,7.20
2022-11-09T11:17:01.889Z,7.70
2022-11-09T11:18:01.871Z,8.20
2022-11-09T11:19:01.929Z,8.60
2022-11-09T11:20:01.931Z,7.60
2022-11-09T11:21:01.994Z,7.00
2022-11-09T11:22:01.984Z,7.80
2022-11-09T11:23:02.045Z,7.80
2022-11-09T11:24:02.054Z,7.00
2022-11-09T11:25:02.087Z,7.10
2022-11-09T11:26:02.091Z,7.70
2022-11-09T11:27:04.309Z,6.90
2022-11-09T11:28:02.156Z,7.60
2022-11-09T11:29:02.199Z,7.50
2022-11-09T11:30:02.676Z,7.10
2022-11-09T11:31:07.328Z,7.90
2022-11-09T11:32:12.189Z,7.90
2022-11-09T11:33:12.354Z,7.50
2022-11-09T11:34:12.351Z,7.20
2022-11-09T11:35:12.407Z,7.20
2022-11-09T11:36:12.526Z,7.20
2022-11-09T11:37:12.564Z,7.20
2022-11-09T11:38:12.465Z,7.40
2022-11-09T11:39:12.517Z,7.60
2022-11-09T11:40:12.526Z,6.70
2022-11-09T11:41:12.737Z,7.00
2022-11-09T11:42:12.572Z,7.20
2022-11-09T11:43:12.635Z,7.10
2022-11-09T11:44:12.648Z,8.20
2022-11-09T11:45:39.137Z,6.80
2022-11-09T11:46:12.692Z,7.30
2022-11-09T11:47:12.997Z,7.00
2022-11-09T11:48:12.763Z,7.00
2022-11-09T11:49:12.819Z,7.20
2022-11-09T11:50:12.809Z,7.90
2022-11-09T11:51:12.845Z,7.20
2022-11-09T11:52:12.868Z,7.40
2022-11-09T11:53:13.008Z,7.10
2022-11-09T11:54:12.922Z,6.90
2022-11-09T11:55:12.964Z,7.00
2022-11-09T11:56:12.983Z,7.10
2022-11-09T11:57:13.180Z,7.00
2022-11-09T11:58:13.061Z,6.60
2022-11-09T11:59:13.090Z,7.00
2022-11-09T12:00:13.113Z,7.20
2022-11-09T12:01:13.172Z,7.40
2022-11-09T12:02:13.276Z,6.90
2022-11-09T12:03:13.367Z,8.30
2022-11-09T12:04:13.244Z,8.10
2022-11-09T12:05:13.293Z,7.30
2022-11-09T12:06:13.297Z,7.20
2022-11-09T12:07:13.545Z,7.10
2022-11-09T12:08:13.365Z,6.90
2022-11-09T12:09:13.575Z,7.30
2022-11-09T12:10:13.444Z,7.50
2022-11-09T12:11:13.490Z,7.70
2022-11-09T12:12:13.508Z,6.30
2022-11-09T12:13:13.565Z,7.80
2022-11-09T12:14:13.564Z,7.20
2022-11-09T12:15:13.633Z,7.40
2022-11-09T12:16:13.640Z,6.80
2022-11-09T12:17:13.708Z,7.30
2022-11-09T12:18:13.719Z,7.30
2022-11-09T12:19:13.767Z,7.20
2022-11-09T12:20:13.777Z,6.80
2022-11-09T12:21:13.845Z,7.00
2022-11-09T12:22:13.839Z,7.50
2022-11-09T12:23:13.938Z,6.50
2022-11-09T12:24:13.895Z,6.80
2022-11-09T12:25:13.975Z,7.40
2022-11-09T12:26:17.041Z,6.60
2022-11-09T12:27:31.666Z,8.00
2022-11-09T12:28:14.017Z,6.90
2022-11-09T12:29:14.067Z,7.10
2022-11-09T12:30:14.207Z,7.00
2022-11-09T12:31:14.123Z,6.80
2022-11-09T12:32:14.127Z,6.50
2022-11-09T12:33:14.173Z,7.10
2022-11-09T12:34:14.197Z,7.00
2022-11-09T12:35:14.262Z,7.50
2022-11-09T12:36:14.393Z,7.00
2022-11-09T12:37:14.422Z,7.10
2022-11-09T12:38:14.321Z,7.20
2022-11-09T12:39:19.372Z,7.20
2022-11-09T12:40:25.459Z,7.20
2022-11-09T12:41:25.460Z,7.30
2022-11-09T12:42:25.478Z,6.90
2022-11-09T12:43:25.537Z,7.00
2022-11-09T12:44:25.541Z,6.40
2022-11-09T12:45:25.614Z,7.20
2022-11-09T12:46:25.608Z,7.10
2022-11-09T12:47:25.778Z,6.50
2022-11-09T12:48:25.689Z,7.20
2022-11-09T12:49:25.740Z,7.20
2022-11-09T12:50:25.851Z,7.10
2022-11-09T12:51:25.842Z,6.70
2022-11-09T12:52:25.799Z,7.30
2022-11-09T12:53:25.848Z,7.00
2022-11-09T12:54:25.881Z,7.80
2022-11-09T12:55:25.950Z,6.80
2022-11-09T12:56:25.953Z,6.70
2022-11-09T12:57:26.040Z,6.60
2022-11-09T12:58:26.035Z,6.70
2022-11-09T12:59:26.080Z,6.50
2022-11-09T13:00:26.203Z,6.20
2022-11-09T13:01:26.675Z,6.50
2022-11-09T13:02:26.165Z,6.40
2022-11-09T13:03:31.104Z,6.40
2022-11-09T13:04:35.139Z,6.30
2022-11-09T13:05:35.382Z,6.50
2022-11-09T13:06:35.324Z,6.10
2022-11-09T13:07:35.364Z,6.30
2022-11-09T13:08:35.356Z,6.60
2022-11-09T13:09:44.518Z,6.00
2022-11-09T13:10:35.552Z,7.00
2022-11-09T13:11:35.480Z,6.40
2022-11-09T13:12:35.499Z,6.30
2022-11-09T13:13:35.561Z,7.90
2022-11-09T13:14:35.549Z,7.20
2022-11-09T13:15:35.748Z,7.60
2022-11-09T13:16:35.604Z,7.20
2022-11-09T13:17:35.682Z,6.90
2022-11-09T13:18:36.516Z,7.10
2022-11-09T13:19:35.721Z,7.20
2022-11-09T13:20:53.302Z,7.10
2022-11-09T13:21:40.687Z,7.20
2022-11-09T13:22:46.740Z,7.50
2022-11-09T13:24:00.901Z,7.00
2022-11-09T13:24:46.865Z,6.80
2022-11-09T13:25:53.001Z,6.40
2022-11-09T13:26:52.946Z,6.10
2022-11-09T13:27:53.398Z,6.80
2022-11-09T13:28:52.994Z,6.60
2022-11-09T13:29:56.683Z,6.40
2022-11-09T13:30:59.052Z,6.60
2022-11-09T13:31:59.054Z,6.60
2022-11-09T13:32:59.073Z,6.30
2022-11-09T13:33:59.112Z,7.00
2022-11-09T13:34:59.114Z,6.60
2022-11-09T13:35:59.284Z,6.80
2022-11-09T13:36:59.202Z,7.30
2022-11-09T13:37:59.354Z,7.00
2022-11-09T13:40:53.262Z,6.10
2022-11-09T13:41:53.527Z,6.90
2022-11-09T13:42:53.398Z,6.10
2022-11-09T13:43:53.449Z,6.80
2022-11-09T13:44:53.463Z,6.30
2022-11-09T13:45:53.588Z,7.20
2022-11-09T13:46:53.545Z,6.60
2022-11-09T13:47:58.491Z,7.10
2022-11-09T13:49:04.638Z,6.40
2022-11-09T13:50:04.636Z,6.30
2022-11-09T13:51:04.653Z,5.90
2022-11-09T13:52:04.843Z,6.80
2022-11-09T13:53:04.707Z,6.40
2022-11-09T13:54:04.765Z,6.50
2022-11-09T13:55:04.764Z,6.40
2022-11-09T13:56:05.266Z,6.90
2022-11-09T13:57:04.818Z,6.10
2022-11-09T13:58:04.997Z,6.20
2022-11-09T13:59:04.996Z,6.40
2022-11-09T14:00:04.927Z,6.80
2022-11-09T14:01:04.949Z,6.30
2022-11-09T14:02:05.040Z,6.00
2022-11-09T14:03:05.152Z,6.40
2022-11-09T14:04:05.055Z,6.60
2022-11-09T14:05:05.070Z,6.30
2022-11-09T14:06:11.018Z,5.80
2022-11-09T14:07:11.179Z,7.00
2022-11-09T14:08:11.194Z,6.60
2022-11-09T14:09:11.338Z,6.60
2022-11-09T14:10:11.175Z,6.60
2022-11-09T14:11:11.247Z,6.30
2022-11-09T14:12:11.237Z,6.10
2022-11-09T14:13:11.404Z,6.60
2022-11-09T14:14:11.303Z,6.80
2022-11-09T14:15:11.343Z,6.30
2022-11-09T14:16:11.333Z,6.20
2022-11-09T14:17:11.357Z,6.10
2022-11-09T14:18:11.396Z,6.50
2022-11-09T14:19:11.560Z,5.80
2022-11-09T14:20:12.216Z,6.90
2022-11-09T14:21:11.476Z,5.80
2022-11-09T14:22:11.465Z,6.20
2022-11-09T14:23:11.513Z,6.30
2022-11-09T14:24:11.667Z,6.20
2022-11-09T14:25:16.453Z,6.00
2022-11-09T14:26:16.602Z,7.10
2022-11-09T14:27:16.615Z,6.10
2022-11-09T14:28:16.959Z,6.00
2022-11-09T14:29:16.914Z,5.90
2022-11-09T14:30:16.717Z,5.80
2022-11-09T14:31:16.736Z,6.30
2022-11-09T14:32:16.765Z,6.00
2022-11-09T14:33:16.768Z,6.60
2022-11-09T14:34:16.949Z,6.00
2022-11-09T14:35:16.824Z,6.00
2022-11-09T14:36:16.867Z,6.00
2022-11-09T14:37:16.850Z,6.00
2022-11-09T14:38:16.916Z,5.90
2022-11-09T14:39:17.056Z,5.40
2022-11-09T14:40:16.968Z,7.10
2022-11-09T14:41:16.948Z,6.00
2022-11-09T14:42:17.005Z,6.10
2022-11-09T14:43:16.987Z,5.40
2022-11-09T14:44:17.056Z,6.20
2022-11-09T14:45:17.153Z,5.40
2022-11-09T14:46:17.094Z,5.40
2022-11-09T14:47:17.103Z,6.00
2022-11-09T14:48:22.428Z,5.40
2022-11-09T14:49:22.173Z,5.70
2022-11-09T14:50:22.287Z,5.70
2022-11-09T14:51:22.198Z,5.40
2022-11-09T14:52:22.203Z,5.10
2022-11-09T14:53:22.260Z,5.00
2022-11-09T14:54:22.277Z,5.50
2022-11-09T14:55:22.283Z,4.80
2022-11-09T14:56:22.393Z,5.00
2022-11-09T14:57:22.332Z,5.60
2022-11-09T14:58:22.759Z,6.10
2022-11-09T14:59:22.407Z,9.70
2022-11-09T15:00:22.365Z,5.90
2022-11-09T15:01:22.509Z,6.30
2022-11-09T15:02:22.423Z,6.20
2022-11-09T15:03:22.457Z,6.00
2022-11-09T15:04:23.139Z,6.00
2022-11-09T15:05:27.417Z,5.70
2022-11-09T15:06:27.702Z,5.90
2022-11-09T15:07:27.531Z,5.50
2022-11-09T15:08:27.566Z,6.20
2022-11-09T15:09:27.669Z,5.80
2022-11-09T15:10:28.055Z,6.00
2022-11-09T15:11:27.631Z,5.90
2022-11-09T15:12:27.639Z,6.00
2022-11-09T15:13:27.628Z,5.50
2022-11-09T15:14:27.679Z,5.80
2022-11-09T15:15:27.684Z,5.90
2022-11-09T15:16:27.769Z,5.90
2022-11-09T15:17:27.748Z,5.70
2022-11-09T15:18:32.826Z,6.30
2022-11-09T15:19:27.889Z,5.90
2022-11-09T15:20:27.828Z,5.40
2022-11-09T15:21:27.973Z,5.60
2022-11-09T15:22:27.837Z,5.60
2022-11-09T15:23:27.863Z,5.40
2022-11-09T15:24:27.906Z,5.80
2022-11-09T15:25:27.910Z,5.80
2022-11-09T15:26:27.939Z,5.00
2022-11-09T15:27:28.062Z,5.50
2022-11-09T15:28:27.973Z,5.70
2022-11-09T15:29:28.021Z,6.20
2022-11-09T15:30:28.009Z,5.60
2022-11-09T15:31:28.033Z,5.60
2022-11-09T15:32:28.073Z,5.60
2022-11-09T15:33:28.194Z,5.50
2022-11-09T15:34:28.098Z,6.20
2022-11-09T15:35:28.103Z,6.30
2022-11-09T15:36:28.163Z,5.60
2022-11-09T15:37:28.152Z,6.20
2022-11-09T15:38:28.227Z,5.60
2022-11-09T15:39:28.347Z,5.40
2022-11-09T15:40:28.275Z,5.70
2022-11-09T15:41:28.267Z,5.40